Time;durP1;ratioP1;P1;durP2;ratioP2;P2;SDS_P1;SDS_P2;PMS_P1;PMS_P2;Temp;Humidity;BMP_temperature;BMP_pressure;BME280_temperature;BME280_humidity;BME280_pressure;Samples;Min_cycle;Max_cycle;Signal;HPM_P1;HPM_P2
2022/05/10 00:01:21;;;;;;;9.67;4.77;;;15.50;80.60;;;;;;5115538;28;20457;-74
2022/05/10 00:03:52;;;;;;;5.47;4.83;;;15.40;80.70;;;;;;5116850;28;20423;-74
2022/05/10 00:06:20;;;;;;;7.17;4.30;;;15.40;80.80;;;;;;5115530;28;20534;-74
2022/05/10 00:08:49;;;;;;;5.50;4.57;;;15.40;80.90;;;;;;5116982;28;20446;-74
2022/05/10 00:11:17;;;;;;;5.87;5.00;;;15.30;80.90;;;;;;5115345;28;20992;-74
2022/05/10 00:13:45;;;;;;;5.13;4.50;;;15.20;81.00;;;;;;5116877;28;20436;-74
2022/05/10 00:16:16;;;;;;;5.13;4.57;;;15.20;81.10;;;;;;5116816;28;20493;-74
2022/05/10 00:18:45;;;;;;;5.90;4.83;;;15.20;81.20;;;;;;5115191;28;20546;-74
2022/05/10 00:21:18;;;;;;;7.20;5.17;;;15.10;81.20;;;;;;5115074;28;20469;-74
2022/05/10 00:23:46;;;;;;;9.63;6.23;;;15.10;81.40;;;;;;5115213;28;20803;-74
2022/05/10 00:26:14;;;;;;;6.90;5.20;;;15.10;81.40;;;;;;5116418;27;20944;-73
2022/05/10 00:28:43;;;;;;;5.80;5.20;;;15.00;81.50;;;;;;5115027;28;20462;-74
2022/05/10 00:31:12;;;;;;;6.93;5.27;;;15.00;81.70;;;;;;5114845;28;20466;-74
2022/05/10 00:33:40;;;;;;;5.77;5.03;;;14.90;81.80;;;;;;5115004;28;20451;-74
2022/05/10 00:36:12;;;;;;;6.30;5.60;;;14.90;81.90;;;;;;5116420;28;20435;-74
2022/05/10 00:38:43;;;;;;;5.30;4.80;;;14.80;82.00;;;;;;5116142;28;21007;-74
2022/05/10 00:41:21;;;;;;;5.40;4.90;;;14.80;82.30;;;;;;5114740;28;20495;-74
2022/05/10 00:43:56;;;;;;;6.00;5.40;;;14.70;82.40;;;;;;5114840;28;20443;-74
2022/05/10 00:46:29;;;;;;;6.43;5.20;;;14.70;82.50;;;;;;5116273;28;20511;-74
2022/05/10 00:49:01;;;;;;;8.30;5.70;;;14.60;82.50;;;;;;5114286;28;20432;-74
2022/05/10 00:51:38;;;;;;;6.80;5.30;;;14.60;83.40;;;;;;5114617;28;20899;-74
2022/05/10 00:54:16;;;;;;;5.10;4.70;;;14.60;82.90;;;;;;5116087;28;20452;-74
2022/05/10 00:56:49;;;;;;;5.23;4.70;;;14.50;82.90;;;;;;5116037;28;20912;-74
2022/05/10 00:59:23;;;;;;;7.17;5.47;;;14.50;83.10;;;;;;5114402;28;20459;-74
2022/05/10 01:01:56;;;;;;;6.27;5.50;;;14.50;83.20;;;;;;5114325;28;20520;-74
2022/05/10 01:04:30;;;;;;;5.87;5.27;;;14.40;83.20;;;;;;5115577;28;20893;-74
2022/05/10 01:07:04;;;;;;;6.10;5.50;;;14.40;83.30;;;;;;5114243;28;20474;-74
2022/05/10 01:09:47;;;;;;;6.20;5.13;;;14.40;83.60;;;;;;5115300;28;20433;-74
2022/05/10 01:12:22;;;;;;;8.10;5.47;;;14.30;83.70;;;;;;5115759;28;20415;-74
2022/05/10 01:14:55;;;;;;;5.90;5.40;;;14.30;83.80;;;;;;5114210;28;20438;-74
2022/05/10 01:17:23;;;;;;;5.57;5.03;;;14.20;83.90;;;;;;5115665;28;20511;-74
2022/05/10 01:19:52;;;;;;;6.73;5.60;;;14.20;84.00;;;;;;5115432;28;20478;-74
2022/05/10 01:22:35;;;;;;;6.63;5.03;;;14.20;84.70;;;;;;5115440;28;20427;-74
2022/05/10 01:25:15;;;;;;;7.17;5.40;;;14.20;84.40;;;;;;5114003;28;20439;-74
2022/05/10 01:27:52;;;;;;;6.30;5.23;;;14.20;84.50;;;;;;5113932;28;20434;-74
2022/05/10 01:30:25;;;;;;;6.67;5.50;;;14.10;84.60;;;;;;5113840;28;20466;-74
2022/05/10 01:35:58;;;;;;;5.47;4.93;;;14.10;85.10;;;;;;5115279;28;20428;-74
2022/05/10 01:38:36;;;;;;;7.40;5.60;;;14.00;85.10;;;;;;5113443;28;20479;-74
2022/05/10 01:41:10;;;;;;;7.47;5.77;;;14.00;85.20;;;;;;5115235;28;20979;-74
2022/05/10 01:43:43;;;;;;;6.57;5.53;;;14.00;85.30;;;;;;5113507;28;20884;-74
2022/05/10 01:46:17;;;;;;;6.30;5.70;;;13.90;85.30;;;;;;5113607;28;20518;-74
2022/05/10 01:48:51;;;;;;;6.77;5.10;;;14.00;85.50;;;;;;5113519;28;20481;-74
2022/05/10 01:51:25;;;;;;;7.00;5.20;;;13.90;85.50;;;;;;5113498;28;20979;-74
2022/05/10 01:53:53;;;;;;;7.63;5.47;;;13.90;85.60;;;;;;5113439;28;20948;-74
2022/05/10 01:56:24;;;;;;;16.63;5.87;;;13.90;85.70;;;;;;5114622;28;20538;-74
2022/05/10 01:58:53;;;;;;;5.93;5.43;;;13.80;85.80;;;;;;5113314;28;20467;-74
2022/05/10 02:01:28;;;;;;;8.00;5.63;;;13.80;85.90;;;;;;5113589;28;20467;-74
2022/05/10 02:04:02;;;;;;;6.20;5.60;;;13.80;86.00;;;;;;5114446;28;20785;-74
2022/05/10 02:06:35;;;;;;;7.80;5.70;;;13.80;86.20;;;;;;5113966;28;20427;-74
2022/05/10 02:09:22;;;;;;;9.47;5.97;;;13.70;86.20;;;;;;5113056;28;20447;-74
2022/05/10 02:11:55;;;;;;;6.23;5.50;;;13.70;86.40;;;;;;5114333;28;20483;-74
2022/05/10 02:14:28;;;;;;;7.37;5.63;;;13.70;86.50;;;;;;5114891;28;20416;-74
2022/05/10 02:17:05;;;;;;;7.63;6.03;;;13.70;86.70;;;;;;5114378;28;20420;-74
2022/05/10 02:19:45;;;;;;;6.07;5.43;;;13.60;86.80;;;;;;5112799;28;21062;-74
2022/05/10 02:22:23;;;;;;;5.67;5.07;;;13.60;86.90;;;;;;5114685;27;20424;-74
2022/05/10 02:24:55;;;;;;;8.73;6.00;;;13.60;87.10;;;;;;5112940;28;20447;-74
2022/05/10 02:27:28;;;;;;;7.27;6.40;;;13.60;87.30;;;;;;5112769;28;20446;-74
2022/05/10 02:30:03;;;;;;;8.57;5.90;;;13.50;87.40;;;;;;5114288;28;20451;-74
2022/05/10 02:35:23;;;;;;;7.57;6.30;;;13.50;87.90;;;;;;5112943;28;20815;-74
2022/05/10 02:37:51;;;;;;;6.10;5.53;;;13.50;88.00;;;;;;5112756;28;20470;-74
2022/05/10 02:40:19;;;;;;;8.77;6.87;;;13.50;88.10;;;;;;5112742;28;20570;-74
2022/05/10 02:42:49;;;;;;;6.93;6.30;;;13.50;88.30;;;;;;5112833;28;20530;-74
2022/05/10 02:45:18;;;;;;;7.50;6.40;;;13.50;88.60;;;;;;5114242;28;20435;-74
2022/05/10 02:47:50;;;;;;;7.83;6.63;;;13.40;88.60;;;;;;5114030;28;20534;-74
2022/05/10 02:50:24;;;;;;;6.80;6.10;;;13.40;88.80;;;;;;5113432;28;20486;-74
2022/05/10 02:52:53;;;;;;;7.17;6.57;;;13.40;88.90;;;;;;5113229;28;20439;-74
2022/05/10 02:55:28;;;;;;;7.90;6.80;;;13.40;89.00;;;;;;5112597;28;20447;-74
2022/05/10 02:58:01;;;;;;;8.00;7.23;;;13.40;89.20;;;;;;5114201;28;20411;-74
2022/05/10 03:00:29;;;;;;;8.73;7.20;;;13.30;89.20;;;;;;5112467;28;20513;-74
2022/05/10 03:03:07;;;;;;;7.40;6.70;;;13.40;89.40;;;;;;5114063;28;20936;-74
2022/05/10 03:05:35;;;;;;;7.50;6.77;;;13.30;89.60;;;;;;5113980;28;20439;-74
2022/05/10 03:08:05;;;;;;;7.40;5.97;;;13.30;89.90;;;;;;5113712;28;20514;-74
2022/05/10 03:10:34;;;;;;;7.40;6.70;;;13.30;89.90;;;;;;5112535;28;20461;-74
2022/05/10 03:13:02;;;;;;;7.70;7.00;;;13.30;90.00;;;;;;5114972;28;20475;-74
2022/05/10 03:15:30;;;;;;;7.60;6.80;;;13.30;90.00;;;;;;5116471;28;20538;-74
2022/05/10 03:18:00;;;;;;;8.10;7.30;;;13.20;90.00;;;;;;5116546;28;20434;-74
2022/05/10 03:20:28;;;;;;;9.90;6.80;;;13.20;90.10;;;;;;5117525;28;20843;-74
2022/05/10 03:22:57;;;;;;;6.77;6.17;;;13.20;90.10;;;;;;5117512;28;20443;-74
2022/05/10 03:25:26;;;;;;;8.33;7.53;;;13.20;90.20;;;;;;5116357;28;20537;-74
2022/05/10 03:27:54;;;;;;;7.70;6.90;;;13.20;90.50;;;;;;5117943;28;20503;-74
2022/05/10 03:30:22;;;;;;;8.00;7.30;;;13.20;90.30;;;;;;5116114;28;20464;-74
2022/05/10 03:32:52;;;;;;;7.90;7.10;;;13.20;90.30;;;;;;5116302;28;20453;-74
2022/05/10 03:35:22;;;;;;;8.60;7.00;;;13.20;90.40;;;;;;5116206;28;20512;-74
2022/05/10 03:37:51;;;;;;;7.53;6.80;;;13.10;90.40;;;;;;5115987;28;20439;-74
2022/05/10 03:40:19;;;;;;;8.23;6.97;;;13.10;90.80;;;;;;5117479;28;20570;-74
2022/05/10 03:42:50;;;;;;;8.10;7.40;;;13.10;90.50;;;;;;5117292;28;20928;-74
2022/05/10 03:45:21;;;;;;;8.43;7.60;;;13.10;90.60;;;;;;5117565;28;20424;-74
2022/05/10 03:47:50;;;;;;;12.83;11.50;;;13.10;90.70;;;;;;5116018;28;20449;-74
2022/05/10 03:50:20;;;;;;;14.10;12.20;;;13.10;90.80;;;;;;5115877;27;20459;-74
2022/05/10 03:52:50;;;;;;;14.80;12.30;;;13.10;91.10;;;;;;5116098;28;20454;-74
2022/05/10 03:55:22;;;;;;;8.60;7.80;;;13.10;91.00;;;;;;5115771;28;20439;-74
2022/05/10 03:57:50;;;;;;;11.70;10.50;;;13.10;91.00;;;;;;5115756;28;20427;-74
2022/05/10 04:00:21;;;;;;;11.80;10.03;;;13.00;91.10;;;;;;5116898;27;20899;-74
2022/05/10 04:02:50;;;;;;;9.00;8.10;;;13.00;91.20;;;;;;5115786;28;20554;-74
2022/05/10 04:05:19;;;;;;;9.30;8.40;;;13.10;91.20;;;;;;5115504;28;21009;-74
2022/05/10 04:07:48;;;;;;;8.27;7.47;;;13.10;91.30;;;;;;5115523;28;20431;-74
2022/05/10 04:10:18;;;;;;;8.43;7.40;;;13.00;91.30;;;;;;5116920;28;20455;-74
2022/05/10 04:12:47;;;;;;;7.50;6.67;;;13.10;91.50;;;;;;5115472;28;20432;-74
2022/05/10 04:15:18;;;;;;;8.37;7.60;;;13.10;91.50;;;;;;5116851;28;20936;-74
2022/05/10 04:17:46;;;;;;;11.20;7.97;;;13.10;91.60;;;;;;5115381;28;20435;-74
2022/05/10 04:20:16;;;;;;;7.73;6.93;;;13.10;91.70;;;;;;5116376;28;20475;-74
2022/05/10 04:22:44;;;;;;;9.13;8.10;;;13.10;91.80;;;;;;5116519;28;20437;-74
2022/05/10 04:25:16;;;;;;;13.87;12.47;;;13.10;91.80;;;;;;5116064;28;20425;-74
2022/05/10 04:27:46;;;;;;;8.63;7.93;;;13.20;92.00;;;;;;5115143;28;20469;-74
2022/05/10 04:30:15;;;;;;;10.33;8.27;;;13.20;92.00;;;;;;5115076;28;20505;-74
2022/05/10 04:32:43;;;;;;;8.40;7.60;;;13.20;92.10;;;;;;5115051;28;20435;-74
2022/05/10 04:35:12;;;;;;;11.50;8.13;;;13.30;92.20;;;;;;5115025;28;20455;-74
2022/05/10 04:37:40;;;;;;;9.60;8.70;;;13.30;92.20;;;;;;5115969;28;20435;-74
2022/05/10 04:42:57;;;;;;;9.10;8.27;;;13.40;92.40;;;;;;5114876;28;20480;-74
2022/05/10 04:45:25;;;;;;;10.40;8.40;;;13.40;92.50;;;;;;5116072;28;20435;-74
2022/05/10 04:47:53;;;;;;;8.40;7.67;;;13.40;92.50;;;;;;5114709;28;20443;-74
2022/05/10 04:50:21;;;;;;;8.07;7.30;;;13.50;92.60;;;;;;5114587;28;20463;-74
2022/05/10 04:52:49;;;;;;;8.60;7.80;;;13.60;92.70;;;;;;5114654;28;20459;-74
2022/05/10 04:55:20;;;;;;;8.53;7.43;;;13.60;92.70;;;;;;5116177;28;20438;-74
2022/05/10 04:57:48;;;;;;;9.40;8.60;;;13.60;92.80;;;;;;5114616;28;20431;-74
2022/05/10 05:00:24;;;;;;;9.53;8.53;;;13.70;92.80;;;;;;5114356;28;20474;-74
2022/05/10 05:02:52;;;;;;;8.20;7.40;;;13.80;92.90;;;;;;5114488;28;20436;-74
2022/05/10 05:05:20;;;;;;;8.87;8.07;;;13.80;92.90;;;;;;5114411;28;20873;-74
2022/05/10 05:07:48;;;;;;;10.47;7.73;;;13.90;93.00;;;;;;5114402;28;20442;-74
2022/05/10 05:10:16;;;;;;;8.63;7.67;;;13.90;93.00;;;;;;5114206;28;20568;-74
2022/05/10 05:12:45;;;;;;;8.67;7.80;;;14.00;93.10;;;;;;5114169;28;20810;-74
2022/05/10 05:15:14;;;;;;;8.10;7.40;;;14.00;93.10;;;;;;5115716;28;20439;-74
2022/05/10 05:17:50;;;;;;;10.30;8.10;;;14.10;93.20;;;;;;5115691;28;20908;-74
2022/05/10 05:20:18;;;;;;;9.83;8.83;;;14.10;93.20;;;;;;5115178;28;20530;-74
2022/05/10 05:22:46;;;;;;;8.90;8.03;;;14.20;93.20;;;;;;5114087;28;20542;-74
2022/05/10 05:25:14;;;;;;;8.37;7.43;;;14.30;93.30;;;;;;5115289;28;20447;-74
2022/05/10 05:27:42;;;;;;;9.80;8.90;;;14.30;93.30;;;;;;5113898;28;20435;-74
2022/05/10 05:30:16;;;;;;;8.93;8.10;;;14.40;93.40;;;;;;5115115;28;21052;-74
2022/05/10 05:32:45;;;;;;;9.27;8.20;;;14.50;93.50;;;;;;5113835;28;20475;-74
2022/05/10 05:35:14;;;;;;;11.83;9.43;;;14.50;93.50;;;;;;5115015;28;20611;-74
2022/05/10 05:37:42;;;;;;;10.00;9.10;;;14.60;93.50;;;;;;5113550;28;20449;-74
2022/05/10 05:40:13;;;;;;;9.60;8.67;;;14.70;93.60;;;;;;5115181;28;20962;-74
2022/05/10 05:42:46;;;;;;;11.40;9.23;;;14.80;93.60;;;;;;5115177;28;20447;-74
2022/05/10 05:45:17;;;;;;;10.13;9.13;;;14.90;93.70;;;;;;5114866;28;20439;-74
2022/05/10 05:47:45;;;;;;;9.57;8.77;;;15.00;93.70;;;;;;5113610;28;20474;-74
2022/05/10 05:50:17;;;;;;;9.00;8.20;;;15.10;93.80;;;;;;5113384;28;20988;-74
2022/05/10 05:52:48;;;;;;;9.13;8.27;;;15.20;93.80;;;;;;5114750;28;20871;-74
2022/05/10 05:55:20;;;;;;;9.90;8.97;;;15.40;93.90;;;;;;5113442;28;20898;-74
2022/05/10 05:57:48;;;;;;;10.17;9.27;;;15.50;94.00;;;;;;5113301;28;21039;-74
2022/05/10 06:00:19;;;;;;;11.33;10.20;;;15.60;94.00;;;;;;5113210;28;20978;-74
2022/05/10 06:02:50;;;;;;;11.27;9.10;;;15.70;94.00;;;;;;5113304;28;20439;-74
2022/05/10 06:05:21;;;;;;;9.13;8.33;;;15.90;94.10;;;;;;5113547;28;20863;-74
2022/05/10 06:07:49;;;;;;;9.83;8.97;;;16.00;94.10;;;;;;5114517;28;20482;-74
2022/05/10 06:10:18;;;;;;;11.33;10.23;;;16.20;94.20;;;;;;5113089;28;20438;-74
2022/05/10 06:12:46;;;;;;;12.10;10.57;;;16.30;94.20;;;;;;5114569;28;20843;-74
2022/05/10 06:15:17;;;;;;;11.47;10.40;;;16.50;94.30;;;;;;5114738;28;20464;-74
2022/05/10 06:17:49;;;;;;;11.60;10.20;;;16.60;94.30;;;;;;5113253;28;20406;-74
2022/05/10 06:20:21;;;;;;;11.37;10.40;;;16.80;94.30;;;;;;5112832;28;20499;-74
2022/05/10 06:22:50;;;;;;;13.00;10.97;;;16.90;94.30;;;;;;5112926;28;20825;-74
2022/05/10 06:25:20;;;;;;;11.77;10.70;;;17.10;94.30;;;;;;5114699;28;20518;-74
2022/05/10 06:27:50;;;;;;;11.40;10.27;;;17.20;94.30;;;;;;5114397;28;20838;-74
2022/05/10 06:30:19;;;;;;;12.77;11.47;;;17.30;94.30;;;;;;5114262;28;20430;-75
2022/05/10 06:32:47;;;;;;;12.57;11.30;;;17.50;94.30;;;;;;5112732;28;20439;-74
2022/05/10 06:35:17;;;;;;;16.20;10.40;;;17.60;94.30;;;;;;5114294;28;20446;-74
2022/05/10 06:40:39;;;;;;;13.67;11.30;;;17.80;94.30;;;;;;5113803;28;20458;-74
2022/05/10 06:43:07;;;;;;;13.80;12.50;;;17.90;94.30;;;;;;5112663;28;20439;-74
2022/05/10 06:45:36;;;;;;;13.10;11.90;;;17.90;94.10;;;;;;5112654;28;20447;-74
2022/05/10 06:48:04;;;;;;;14.00;12.70;;;18.00;94.10;;;;;;5113601;28;20442;-74
2022/05/10 06:50:33;;;;;;;13.60;12.40;;;18.10;94.10;;;;;;5113612;28;20550;-75
2022/05/10 06:53:03;;;;;;;13.90;12.60;;;18.20;94.00;;;;;;5112488;28;20450;-75
2022/05/10 06:55:33;;;;;;;13.80;12.57;;;18.20;94.20;;;;;;5112419;28;20530;-74
2022/05/10 06:58:02;;;;;;;13.20;11.80;;;18.30;93.90;;;;;;5112457;28;20877;-74
2022/05/10 07:00:33;;;;;;;14.50;13.10;;;18.30;93.90;;;;;;5113579;28;20455;-75
2022/05/10 07:03:05;;;;;;;15.13;13.63;;;18.40;93.90;;;;;;5114172;28;20900;-75
2022/05/10 07:05:33;;;;;;;14.73;13.20;;;18.50;93.90;;;;;;5114040;28;20416;-75
2022/05/10 07:08:03;;;;;;;14.83;13.50;;;18.50;93.90;;;;;;5112334;28;20451;-75
2022/05/10 07:10:32;;;;;;;13.70;12.33;;;18.60;93.90;;;;;;5113542;28;20457;-75
2022/05/10 07:13:00;;;;;;;14.50;13.20;;;18.60;93.80;;;;;;5112503;28;20414;-76
2022/05/10 07:15:30;;;;;;;15.40;13.83;;;18.70;93.80;;;;;;5113599;28;20522;-75
2022/05/10 07:17:58;;;;;;;14.47;13.10;;;18.70;93.80;;;;;;5113857;28;20993;-75
2022/05/10 07:20:26;;;;;;;14.83;13.70;;;18.80;93.80;;;;;;5113656;28;20470;-75
2022/05/10 07:22:54;;;;;;;15.27;13.63;;;18.80;93.70;;;;;;5113722;28;20474;-75
2022/05/10 07:25:25;;;;;;;15.63;14.33;;;18.90;94.00;;;;;;5113583;28;20950;-74
2022/05/10 07:27:54;;;;;;;16.27;14.70;;;19.00;93.60;;;;;;5112191;28;20447;-75
2022/05/10 07:30:23;;;;;;;18.17;16.17;;;19.00;93.60;;;;;;5112156;28;20486;-75
2022/05/10 07:32:52;;;;;;;15.63;14.33;;;19.10;93.60;;;;;;5113535;28;20984;-75
2022/05/10 07:36:23;;;;;;;14.70;13.40;;;19.20;93.60;;;;;;5113728;28;20449;-75
2022/05/10 07:38:12;;;;;;;16.97;15.20;;;19.30;93.60;;;;;;5112127;28;20470;-75
2022/05/10 07:40:45;;;;;;;15.80;14.30;;;19.40;93.60;;;;;;5112143;28;20458;-75
2022/05/10 07:43:13;;;;;;;15.90;14.13;;;19.50;93.50;;;;;;5112006;28;20543;-75
2022/05/10 07:45:42;;;;;;;15.47;14.13;;;19.50;93.50;;;;;;5112001;28;20840;-75
2022/05/10 07:48:11;;;;;;;14.73;13.23;;;19.60;93.50;;;;;;5112055;28;20482;-75
2022/05/10 07:50:39;;;;;;;15.00;13.50;;;19.70;93.40;;;;;;5112058;28;20463;-75
2022/05/10 07:53:11;;;;;;;15.43;14.03;;;19.80;93.40;;;;;;5113471;28;20433;-75
2022/05/10 07:55:39;;;;;;;14.80;13.60;;;19.90;93.30;;;;;;5112499;28;20462;-75
2022/05/10 07:58:09;;;;;;;16.00;14.33;;;20.00;93.30;;;;;;5111979;28;20447;-75
2022/05/10 08:00:39;;;;;;;15.57;13.90;;;20.10;93.20;;;;;;5115001;28;20469;-75
2022/05/10 08:03:12;;;;;;;16.17;14.57;;;20.20;93.30;;;;;;5116819;28;20474;-75
2022/05/10 08:05:41;;;;;;;14.47;13.13;;;20.40;93.40;;;;;;5115683;28;20522;-75
2022/05/10 08:08:11;;;;;;;18.33;14.67;;;20.70;93.40;;;;;;5115495;28;20963;-75
2022/05/10 08:10:41;;;;;;;15.83;13.93;;;20.80;93.20;;;;;;5116711;28;20447;-76
2022/05/10 08:13:12;;;;;;;15.53;14.23;;;21.00;93.10;;;;;;5115513;28;20459;-75
2022/05/10 08:15:40;;;;;;;18.60;16.30;;;21.20;93.00;;;;;;5115747;28;20865;-76
2022/05/10 08:18:09;;;;;;;14.33;13.10;;;21.40;92.80;;;;;;5115314;28;20439;-75
2022/05/10 08:20:38;;;;;;;15.40;13.77;;;21.50;92.70;;;;;;5116437;28;21094;-75
2022/05/10 08:23:07;;;;;;;17.07;13.70;;;21.60;92.50;;;;;;5115121;28;20473;-75
2022/05/10 08:25:35;;;;;;;18.83;13.30;;;21.80;92.40;;;;;;5116770;28;20477;-75
2022/05/10 08:28:06;;;;;;;14.90;13.43;;;22.00;92.40;;;;;;5115300;28;20471;-75
2022/05/10 08:30:35;;;;;;;14.23;12.83;;;22.20;92.30;;;;;;5115062;28;20451;-76
2022/05/10 08:33:04;;;;;;;14.03;12.53;;;22.40;92.10;;;;;;5116307;28;20427;-75
2022/05/10 08:35:42;;;;;;;13.30;12.00;;;22.50;92.00;;;;;;5115889;28;20435;-75
2022/05/10 08:38:10;;;;;;;13.40;12.17;;;22.70;91.90;;;;;;5116192;28;20554;-76
2022/05/10 08:40:42;;;;;;;12.43;11.33;;;22.90;91.80;;;;;;5116341;28;20463;-75
2022/05/10 08:43:20;;;;;;;12.10;11.00;;;23.10;91.60;;;;;;5114865;28;20456;-76
2022/05/10 08:45:50;;;;;;;11.17;10.17;;;23.30;91.40;;;;;;5116013;28;20431;-75
2022/05/10 08:48:18;;;;;;;11.67;10.67;;;23.40;91.20;;;;;;5116243;28;20445;-76
2022/05/10 08:50:49;;;;;;;11.60;10.60;;;23.60;91.00;;;;;;5114633;28;21007;-77
2022/05/10 08:53:18;;;;;;;11.50;10.47;;;23.70;90.80;;;;;;5116387;28;20481;-76
2022/05/10 08:55:52;;;;;;;12.60;11.27;;;23.80;90.70;;;;;;5114603;28;20454;-76
2022/05/10 08:58:47;;;;;;;10.63;9.67;;;24.00;90.50;;;;;;5116394;28;20469;-76
2022/05/10 09:01:44;;;;;;;11.70;9.13;;;24.20;90.30;;;;;;5115692;28;20478;-76
2022/05/10 09:04:25;;;;;;;9.80;8.87;;;24.30;90.10;;;;;;5116025;28;20502;-76
2022/05/10 09:07:08;;;;;;;8.47;7.70;;;24.50;90.00;;;;;;5115814;28;20430;-76
2022/05/10 09:09:49;;;;;;;8.83;7.70;;;24.60;89.30;;;;;;5115323;28;20503;-76
2022/05/10 09:12:21;;;;;;;8.70;6.77;;;24.70;88.80;;;;;;5114456;28;20806;-76
2022/05/10 09:14:54;;;;;;;8.23;7.43;;;24.90;88.30;;;;;;5114377;28;20435;-76
2022/05/10 09:17:28;;;;;;;7.23;6.53;;;25.00;87.60;;;;;;5114403;28;20435;-76
2022/05/10 09:19:57;;;;;;;7.90;6.07;;;25.20;86.90;;;;;;5114432;28;20463;-75
2022/05/10 09:23:05;;;;;;;7.50;6.90;;;25.30;86.60;;;;;;5115663;28;20471;-76
2022/05/10 09:25:36;;;;;;;6.83;6.17;;;25.50;85.50;;;;;;5114445;28;20878;-76
2022/05/10 09:28:12;;;;;;;7.03;5.70;;;25.60;85.20;;;;;;5114563;28;20543;-76
2022/05/10 09:30:40;;;;;;;6.00;5.40;;;25.70;84.50;;;;;;5114280;28;20487;-75
2022/05/10 09:36:10;;;;;;;6.83;6.13;;;25.80;82.40;;;;;;5115721;28;20439;-75
2022/05/10 09:38:47;;;;;;;7.57;6.90;;;25.70;82.40;;;;;;5115510;28;20469;-75
2022/05/10 09:41:33;;;;;;;8.33;7.27;;;25.70;82.10;;;;;;5115712;28;20451;-75
2022/05/10 09:44:18;;;;;;;8.57;7.70;;;25.70;81.70;;;;;;5115379;28;20512;-75
2022/05/10 09:46:46;;;;;;;9.37;7.40;;;25.70;81.60;;;;;;5114153;28;20890;-75
2022/05/10 09:49:34;;;;;;;9.73;8.93;;;25.70;82.10;;;;;;5113925;28;20819;-75
2022/05/10 09:52:03;;;;;;;7.90;7.20;;;25.70;81.10;;;;;;5115116;28;20942;-75
2022/05/10 09:54:37;;;;;;;8.17;7.50;;;25.80;80.90;;;;;;5115547;28;20541;-75
2022/05/10 09:57:10;;;;;;;10.13;8.13;;;25.90;80.40;;;;;;5113847;28;20539;-75
2022/05/10 09:59:46;;;;;;;7.57;6.80;;;26.00;80.30;;;;;;5113874;28;20448;-75
2022/05/10 10:02:27;;;;;;;7.37;6.67;;;26.20;80.40;;;;;;5113677;28;20485;-75
2022/05/10 10:04:58;;;;;;;6.40;5.23;;;26.20;79.80;;;;;;5113676;28;21015;-75
2022/05/10 10:07:28;;;;;;;7.83;4.50;;;26.30;79.10;;;;;;5113604;28;20460;-75
2022/05/10 10:10:14;;;;;;;5.80;4.50;;;26.30;77.90;;;;;;5114894;28;20447;-75
2022/05/10 10:12:44;;;;;;;6.20;4.10;;;26.40;77.40;;;;;;5115069;27;20439;-75
2022/05/10 10:15:25;;;;;;;4.70;4.00;;;26.40;76.90;;;;;;5113392;28;20945;-75
2022/05/10 10:17:56;;;;;;;4.73;4.10;;;26.50;76.10;;;;;;5115036;28;20432;-75
2022/05/10 10:20:33;;;;;;;4.80;3.83;;;26.50;75.60;;;;;;5114505;28;20454;-75
2022/05/10 10:23:07;;;;;;;4.87;4.23;;;26.70;75.60;;;;;;5114438;28;20451;-75
2022/05/10 10:25:41;;;;;;;5.63;4.47;;;26.80;75.40;;;;;;5115263;28;20852;-75
2022/05/10 10:28:22;;;;;;;5.60;4.60;;;26.90;74.60;;;;;;5113968;28;20442;-75
2022/05/10 10:30:55;;;;;;;6.17;4.60;;;27.00;74.70;;;;;;5114934;28;20519;-75
2022/05/10 10:33:34;;;;;;;4.10;3.30;;;27.00;73.30;;;;;;5113336;28;20840;-75
2022/05/10 10:36:10;;;;;;;4.83;4.30;;;27.00;72.50;;;;;;5114782;28;20484;-75
2022/05/10 10:38:52;;;;;;;4.20;3.80;;;27.00;72.00;;;;;;5114514;28;20545;-75
2022/05/10 10:41:30;;;;;;;5.13;4.37;;;27.10;71.60;;;;;;5112979;28;20467;-76
2022/05/10 10:44:04;;;;;;;6.87;4.27;;;27.30;71.60;;;;;;5113563;28;20528;-76
2022/05/10 10:46:39;;;;;;;6.80;4.67;;;27.30;71.50;;;;;;5113379;28;20457;-76
2022/05/10 10:49:12;;;;;;;4.90;4.40;;;27.30;71.40;;;;;;5112817;28;20913;-76
2022/05/10 10:51:41;;;;;;;5.13;4.63;;;27.30;71.40;;;;;;5114054;28;20487;-76
2022/05/10 10:54:17;;;;;;;5.77;5.23;;;27.40;71.00;;;;;;5113870;28;20423;-76
2022/05/10 10:57:15;;;;;;;6.47;5.83;;;27.30;70.80;;;;;;5114084;28;20466;-76
2022/05/10 11:00:04;;;;;;;6.23;5.70;;;27.30;70.90;;;;;;5113668;28;20952;-75
2022/05/10 11:02:56;;;;;;;6.70;5.70;;;27.30;71.10;;;;;;5112451;28;20488;-76
2022/05/10 11:06:19;;;;;;;5.90;5.23;;;27.30;71.10;;;;;;5103284;28;20439;-75
2022/05/10 11:09:09;;;;;;;6.90;5.53;;;27.20;71.50;;;;;;5034415;28;20427;-76
2022/05/10 11:11:50;;;;;;;6.20;5.60;;;27.30;71.50;;;;;;5051041;28;20458;-75
2022/05/10 11:14:35;;;;;;;6.97;5.57;;;27.30;71.10;;;;;;5099829;28;20440;-75
2022/05/10 11:17:11;;;;;;;8.30;5.60;;;27.30;70.70;;;;;;5113491;28;20824;-76
2022/05/10 11:20:05;;;;;;;6.23;5.63;;;27.20;70.80;;;;;;5114063;28;20503;-75
2022/05/10 11:22:38;;;;;;;7.97;6.30;;;27.20;70.90;;;;;;5112510;28;20932;-74
2022/05/10 11:25:23;;;;;;;7.20;6.60;;;27.20;71.30;;;;;;5112206;28;20459;-75
2022/05/10 11:28:27;;;;;;;7.27;6.70;;;27.20;71.60;;;;;;5112249;28;20944;-75
2022/05/10 11:31:10;;;;;;;7.90;6.80;;;27.10;71.60;;;;;;5112126;28;20471;-75
2022/05/10 11:33:50;;;;;;;10.17;7.30;;;27.10;71.60;;;;;;5113908;28;20431;-75
2022/05/10 11:36:32;;;;;;;9.00;7.33;;;27.10;71.80;;;;;;5116195;28;20501;-75
2022/05/10 11:39:32;;;;;;;7.13;6.63;;;27.00;71.80;;;;;;5116126;28;20447;-75
2022/05/10 11:42:21;;;;;;;7.37;6.67;;;27.00;71.50;;;;;;5116053;28;20436;-75
2022/05/10 11:45:19;;;;;;;9.40;7.70;;;27.00;71.40;;;;;;5117146;28;20551;-75
2022/05/10 11:48:21;;;;;;;12.10;7.00;;;27.00;71.00;;;;;;5117488;27;20407;-75
2022/05/10 11:51:43;;;;;;;11.10;7.00;;;26.90;71.00;;;;;;5115974;28;20903;-75
2022/05/10 11:54:40;;;;;;;7.90;7.20;;;26.90;71.20;;;;;;5115822;28;20444;-75
2022/05/10 11:57:19;;;;;;;10.63;6.13;;;26.90;71.60;;;;;;5117319;28;20469;-75
2022/05/10 11:59:48;;;;;;;9.33;8.53;;;27.00;72.00;;;;;;5116910;28;20411;-76
2022/05/10 12:02:48;;;;;;;8.17;7.43;;;27.00;71.80;;;;;;5115587;28;20451;-76
2022/05/10 12:05:26;;;;;;;10.53;7.50;;;27.00;71.60;;;;;;5113165;28;20557;-76
2022/05/10 12:07:56;;;;;;;12.27;8.20;;;27.10;71.70;;;;;;5115578;28;21033;-76
2022/05/10 12:10:45;;;;;;;8.67;7.87;;;27.10;71.70;;;;;;5115317;28;20879;-75
2022/05/10 12:22:58;;;;;;;8.97;8.20;;;27.20;71.30;;;;;;5116520;28;20511;-76
2022/05/10 12:26:00;;;;;;;8.27;7.50;;;27.10;71.60;;;;;;5115155;28;20549;-76
2022/05/10 12:28:41;;;;;;;8.83;8.13;;;27.00;71.40;;;;;;5054042;28;20426;-76
2022/05/10 12:31:40;;;;;;;8.50;7.63;;;26.90;71.50;;;;;;5037006;28;20560;-76
2022/05/10 12:34:13;;;;;;;8.50;7.90;;;26.90;71.60;;;;;;5084224;28;20542;-76
2022/05/10 12:36:43;;;;;;;7.90;7.20;;;26.80;71.40;;;;;;5116541;28;20806;-75
2022/05/10 12:39:22;;;;;;;7.57;6.87;;;26.70;71.60;;;;;;5114796;28;20458;-75
2022/05/10 12:41:53;;;;;;;9.23;8.43;;;26.60;71.60;;;;;;5114833;28;20471;-75
2022/05/10 12:44:51;;;;;;;9.70;8.93;;;26.60;72.50;;;;;;5114445;28;20455;-75
2022/05/10 12:47:50;;;;;;;9.77;8.97;;;26.50;73.70;;;;;;5114752;28;20534;-75
2022/05/10 12:50:42;;;;;;;8.63;7.70;;;26.40;74.10;;;;;;5116371;28;20459;-75
2022/05/10 12:53:22;;;;;;;9.03;8.10;;;26.30;74.30;;;;;;5114104;27;21012;-75
2022/05/10 12:55:52;;;;;;;8.30;7.60;;;26.20;74.50;;;;;;5116244;28;20912;-75
2022/05/10 12:58:23;;;;;;;9.40;8.57;;;26.20;75.40;;;;;;5116081;28;20443;-75
2022/05/10 13:00:55;;;;;;;7.50;6.90;;;26.20;75.00;;;;;;5114495;28;20900;-75
2022/05/10 13:03:26;;;;;;;8.30;7.70;;;26.20;74.90;;;;;;5116648;27;20419;-75
2022/05/10 13:06:10;;;;;;;7.10;6.47;;;26.20;74.80;;;;;;5114577;28;20459;-75
2022/05/10 13:09:11;;;;;;;7.27;6.70;;;26.20;74.30;;;;;;5115684;28;20426;-75
2022/05/10 13:11:44;;;;;;;9.43;8.43;;;26.20;73.70;;;;;;5114852;28;20473;-75
2022/05/10 13:14:14;;;;;;;37.23;34.23;;;26.20;73.40;;;;;;5114419;28;20488;-75
2022/05/10 13:16:48;;;;;;;8.30;7.70;;;26.10;72.90;;;;;;5115682;27;20454;-75
2022/05/10 13:19:17;;;;;;;23.87;21.70;;;26.20;72.60;;;;;;5114222;28;20869;-75
2022/05/10 13:21:48;;;;;;;9.37;8.47;;;26.20;72.50;;;;;;5115321;28;20456;-74
2022/05/10 13:24:19;;;;;;;8.87;6.47;;;26.20;72.20;;;;;;5113983;28;20459;-75
2022/05/10 13:26:52;;;;;;;7.37;6.47;;;26.20;71.90;;;;;;5115769;28;20484;-75
2022/05/10 13:29:20;;;;;;;8.50;7.80;;;26.20;71.70;;;;;;5115437;28;20441;-75
2022/05/10 13:31:49;;;;;;;10.77;6.60;;;26.20;71.90;;;;;;5115434;28;20447;-75
2022/05/10 13:34:18;;;;;;;9.03;6.87;;;26.20;71.90;;;;;;5115241;28;20858;-75
2022/05/10 13:36:50;;;;;;;6.60;6.10;;;26.30;71.70;;;;;;5115016;28;20857;-75
2022/05/10 13:39:24;;;;;;;7.70;7.00;;;26.40;71.80;;;;;;5113802;28;20458;-75